Airfield :
LOGIN :

Register | Disclaimer

   EN    FR    IT 

 










Legend :    VFR   Marginal VFR   IFR   Intensive IFR   Very Intensive IFR
Visi :
Ceiling :
>= 8 km
>= 3000ft
5 to 8 km
1000 to 3000 ft
1500m to 5 km
500 to 1000 ft
800 to 1500m
200 to 500 ft
< 800m
< 200 ft
Symbols :   Thunderstorms  Fog  Heavy snow  Heavy precipitations  Wind > 20 kt
SIGMETs :     Misc.  Thunderstorms  Icing  Turbulence  Mountain Waves  Volcanic Ashes






- Airport Elevation : 15 ft
- IATA code : BHD


EGAC - George Best Belfast City

CURRENT METAR :
  • 280550Z AUTO 21013KT 9999 -RA SCT010/// BKN021/// BKN037/// 01/00 Q0987

EXPIRED METARs :
  • 280520Z AUTO 18011KT 9999 SCT013/// BKN028/// 01/M00 Q0987
  • 280450Z AUTO 20013KT 9999 NCD 01/M01 Q0987
  • 280420Z AUTO 18012KT 9999 BKN010/// 01/M01 Q0986
  • 280350Z AUTO 18013KT 9999 BKN012/// 01/M00 Q0987
  • 280320Z AUTO 21011KT 9999 SCT013/// 01/M00 Q0987

TAF TAF EGAC
Valid from the 28 at 06:00 until the 28 at 15:00 UTC


280553Z 2806/2815 23012KT 9999 FEW015 SCT020
PROB40
TEMPO 2806/2815 4000 SHRASN SHRA SCT005 BKN010
PROB30
TEMPO 2811/2815 26018G28KT
ATIS : +44 02890 935 124



MET'MAP, your aeronautical weather chart ! - Copyright ORBIFLY December 2007 - Disclaimer

ORBIFLY MET'MAP TEAM :

Programming & Development : Alexandra Zaïnal
Concept & original design : Baudouin d'Aumeries
Assistance for programming : Marc-Olivier Méhu
Technical & hardware support : Manuel Goepfert

Contact : metmap@orbifly.com




SOURCES & CREDITS :

   NOAA